createdAt,value
2018-04-15T00:00:38.999Z,8.15
2018-04-15T00:03:07.887Z,8.73
2018-04-15T00:05:36.965Z,8.88
2018-04-15T00:08:05.856Z,7.78
2018-04-15T00:10:35.079Z,8.30
2018-04-15T00:13:03.991Z,8.35
2018-04-15T00:15:32.875Z,6.93
2018-04-15T00:18:01.962Z,7.65
2018-04-15T00:20:30.870Z,8.50
2018-04-15T00:22:59.759Z,7.40
2018-04-15T00:25:28.649Z,7.95
2018-04-15T00:27:57.547Z,8.20
2018-04-15T00:30:26.623Z,8.93
2018-04-15T00:32:55.511Z,7.95
2018-04-15T00:35:24.400Z,8.25
2018-04-15T00:37:53.499Z,9.23
2018-04-15T00:40:22.386Z,8.27
2018-04-15T00:42:51.494Z,7.80
2018-04-15T00:45:20.579Z,8.82
2018-04-15T00:47:49.473Z,8.25
2018-04-15T00:50:18.375Z,10.73
2018-04-15T00:52:47.470Z,10.10
2018-04-15T00:55:16.368Z,10.05
2018-04-15T00:57:45.263Z,8.43
2018-04-15T01:00:14.382Z,9.10
2018-04-15T01:02:43.271Z,8.13
2018-04-15T01:05:12.159Z,8.95
2018-04-15T01:07:41.291Z,10.50
2018-04-15T01:10:10.183Z,9.77
2018-04-15T01:12:39.075Z,8.65
2018-04-15T01:15:07.967Z,8.27
2018-04-15T01:17:36.855Z,9.68
2018-04-15T01:20:05.924Z,7.25
2018-04-15T01:22:34.815Z,8.20
2018-04-15T01:25:03.714Z,7.75
2018-04-15T01:27:32.602Z,8.90
2018-04-15T01:30:01.493Z,7.70
2018-04-15T01:32:30.567Z,6.85
2018-04-15T01:34:59.458Z,7.70
2018-04-15T01:37:28.350Z,8.15
2018-04-15T01:39:57.428Z,9.10
2018-04-15T01:42:26.325Z,8.27
2018-04-15T01:44:55.218Z,7.45
2018-04-15T01:47:24.111Z,7.82
2018-04-15T01:49:52.998Z,9.57
2018-04-15T01:52:22.015Z,7.78
2018-04-15T01:54:50.898Z,7.75
2018-04-15T01:57:19.818Z,8.35
2018-04-15T01:59:48.709Z,9.95
2018-04-15T02:02:17.600Z,8.35
2018-04-15T02:04:46.559Z,9.18
2018-04-15T02:07:15.442Z,8.00
2018-04-15T02:09:44.334Z,8.48
2018-04-15T02:12:13.223Z,9.45
2018-04-15T02:14:42.118Z,9.85
2018-04-15T02:17:11.179Z,12.10
2018-04-15T02:19:40.063Z,9.95
2018-04-15T02:22:08.952Z,9.60
2018-04-15T02:24:37.915Z,7.12
2018-04-15T02:27:06.819Z,8.98
2018-04-15T02:29:35.708Z,8.50
2018-04-15T02:32:04.626Z,8.35
2018-04-15T02:34:33.528Z,8.80
2018-04-15T02:37:02.415Z,8.40
2018-04-15T02:39:31.496Z,7.12
2018-04-15T02:42:00.420Z,7.62
2018-04-15T02:44:29.314Z,7.90
2018-04-15T02:46:58.203Z,8.60
2018-04-15T02:49:27.090Z,9.82
2018-04-15T02:51:55.999Z,8.05
2018-04-15T02:54:24.893Z,9.70
2018-04-15T02:56:53.782Z,10.25
2018-04-15T02:59:22.924Z,9.55
2018-04-15T03:01:51.819Z,8.90
2018-04-15T03:04:20.918Z,8.98
2018-04-15T03:06:49.999Z,7.60
2018-04-15T03:09:18.894Z,8.85
2018-04-15T03:11:47.843Z,7.75
2018-04-15T03:14:16.730Z,8.13
2018-04-15T03:16:45.627Z,9.05
2018-04-15T03:19:14.875Z,9.20
2018-04-15T03:21:43.775Z,8.23
2018-04-15T03:24:12.670Z,8.93
2018-04-15T03:26:41.583Z,8.60
2018-04-15T03:29:10.477Z,7.15
2018-04-15T03:31:39.369Z,7.90
2018-04-15T03:34:08.263Z,7.62
2018-04-15T03:36:37.160Z,9.27
2018-04-15T03:39:06.274Z,10.60
2018-04-15T03:41:35.369Z,8.35
2018-04-15T03:44:04.260Z,7.72
2018-04-15T03:46:33.195Z,9.63
2018-04-15T03:49:02.175Z,9.00
2018-04-15T03:51:31.070Z,7.85
2018-04-15T03:53:59.962Z,8.30
2018-04-15T03:56:28.847Z,8.10
2018-04-15T03:58:57.740Z,7.35
2018-04-15T04:01:26.627Z,7.72
2018-04-15T04:03:55.518Z,9.10
2018-04-15T04:06:24.443Z,7.78
2018-04-15T04:08:53.357Z,18.60
2018-04-15T04:11:22.246Z,15.02
2018-04-15T04:13:51.210Z,13.70
2018-04-15T04:16:20.102Z,16.30
2018-04-15T04:19:06.516Z,14.23
2018-04-15T04:21:41.246Z,11.18
2018-04-15T04:24:15.934Z,8.27
2018-04-15T04:26:44.827Z,10.60
2018-04-15T04:29:13.927Z,12.82
2018-04-15T04:31:42.830Z,8.95
2018-04-15T04:34:11.722Z,9.02
2018-04-15T04:36:40.617Z,8.23
2018-04-15T04:39:09.511Z,7.43
2018-04-15T04:41:38.425Z,7.75
2018-04-15T04:44:07.307Z,8.10
2018-04-15T04:46:36.199Z,7.97
2018-04-15T04:49:05.244Z,7.32
2018-04-15T04:51:34.139Z,8.20
2018-04-15T04:54:03.026Z,8.13
2018-04-15T04:56:32.163Z,7.40
2018-04-15T04:59:01.052Z,7.95
2018-04-15T05:01:29.972Z,8.00
2018-04-15T05:03:58.870Z,7.87
2018-04-15T05:06:27.763Z,7.50
2018-04-15T05:08:56.982Z,7.72
2018-04-15T05:11:25.887Z,9.40
2018-04-15T05:13:54.832Z,7.50
2018-04-15T05:16:23.720Z,7.90
2018-04-15T05:18:52.606Z,8.30
2018-04-15T05:21:21.640Z,8.18
2018-04-15T05:23:50.719Z,8.40
2018-04-15T05:26:19.603Z,7.45
2018-04-15T05:28:48.499Z,8.45
2018-04-15T05:31:17.382Z,8.10
2018-04-15T05:33:46.502Z,7.95
2018-04-15T05:36:15.391Z,7.90
2018-04-15T05:38:44.293Z,8.55
2018-04-15T05:41:13.796Z,6.45
2018-04-15T05:43:42.688Z,8.43
2018-04-15T05:46:11.575Z,8.73
2018-04-15T05:48:40.519Z,8.27
2018-04-15T05:51:09.411Z,8.18
2018-04-15T05:53:38.311Z,18.17
2018-04-15T05:56:07.251Z,8.48
2018-04-15T05:58:36.138Z,8.27
2018-04-15T06:01:05.027Z,9.55
2018-04-15T06:03:33.919Z,12.65
2018-04-15T06:06:02.816Z,11.90
2018-04-15T06:08:32.107Z,15.85
2018-04-15T06:11:00.999Z,10.02
2018-04-15T06:13:29.908Z,10.95
2018-04-15T06:15:58.846Z,9.65
2018-04-15T06:18:27.833Z,8.70
2018-04-15T06:20:56.722Z,7.80
2018-04-15T06:23:25.751Z,8.10
2018-04-15T06:25:54.643Z,8.43
2018-04-15T06:28:23.538Z,8.90
2018-04-15T06:30:52.647Z,8.10
2018-04-15T06:33:21.539Z,8.50
2018-04-15T06:35:50.439Z,9.98
2018-04-15T06:38:19.383Z,13.95
2018-04-15T06:40:48.283Z,15.50
2018-04-15T06:43:17.180Z,10.30
2018-04-15T06:45:46.158Z,11.35
2018-04-15T06:48:15.071Z,10.05
2018-04-15T06:50:43.959Z,8.73
2018-04-15T06:53:12.851Z,10.05
2018-04-15T06:55:41.786Z,8.88
2018-04-15T06:58:10.712Z,9.05
2018-04-15T07:00:39.603Z,9.20
2018-04-15T07:03:08.487Z,9.68
2018-04-15T07:05:37.377Z,8.65
2018-04-15T07:08:06.267Z,8.23
2018-04-15T07:10:35.186Z,10.85
2018-04-15T07:13:04.130Z,11.65
2018-04-15T07:15:33.025Z,8.70
2018-04-15T07:18:01.978Z,10.27
2018-04-15T07:20:30.921Z,9.45
2018-04-15T07:22:59.810Z,8.38
2018-04-15T07:25:29.043Z,8.27
2018-04-15T07:27:57.936Z,7.65
2018-04-15T07:30:26.865Z,13.07
2018-04-15T07:32:55.811Z,11.10
2018-04-15T07:35:24.713Z,11.30
2018-04-15T07:37:53.599Z,8.60
2018-04-15T07:40:22.795Z,7.87
2018-04-15T07:42:51.691Z,9.52
2018-04-15T07:45:20.587Z,10.40
2018-04-15T07:47:49.479Z,7.93
2018-04-15T07:50:18.375Z,8.38
2018-04-15T07:52:47.655Z,7.55
2018-04-15T07:55:16.546Z,9.43
2018-04-15T07:57:45.442Z,8.00
2018-04-15T08:00:14.734Z,8.70
2018-04-15T08:02:43.626Z,8.98
2018-04-15T08:05:12.519Z,10.05
2018-04-15T08:07:41.687Z,9.52
2018-04-15T08:10:10.576Z,9.75
2018-04-15T08:12:39.464Z,9.80
2018-04-15T08:15:08.359Z,9.65
2018-04-15T08:17:37.246Z,9.68
2018-04-15T08:20:06.199Z,18.98
2018-04-15T08:22:35.100Z,12.60
2018-04-15T08:25:04.043Z,10.68
2018-04-15T08:27:33.171Z,10.27
2018-04-15T08:30:02.068Z,9.52
2018-04-15T08:32:30.967Z,10.30
2018-04-15T08:34:59.860Z,10.20
2018-04-15T08:37:28.754Z,11.38
2018-04-15T08:39:57.698Z,12.35
2018-04-15T08:42:26.593Z,10.45
2018-04-15T08:44:55.490Z,11.80
2018-04-15T08:47:24.387Z,12.25
2018-04-15T08:49:53.278Z,10.23
2018-04-15T08:52:22.462Z,10.45
2018-04-15T08:54:51.373Z,10.35
2018-04-15T08:57:20.332Z,11.32
2018-04-15T08:59:49.290Z,11.90
2018-04-15T09:02:18.179Z,11.25
2018-04-15T09:04:47.079Z,11.25
2018-04-15T09:07:15.975Z,11.63
2018-04-15T09:09:44.907Z,10.80
2018-04-15T09:12:13.999Z,11.25
2018-04-15T09:14:42.891Z,9.90
2018-04-15T09:17:11.799Z,9.90
2018-04-15T09:19:40.826Z,9.98
2018-04-15T09:22:09.718Z,10.80
2018-04-15T09:24:38.623Z,11.88
2018-04-15T09:27:07.520Z,11.07
2018-04-15T09:29:36.418Z,11.88
2018-04-15T09:32:05.540Z,13.88
2018-04-15T09:34:34.438Z,13.20
2018-04-15T09:37:03.333Z,11.52
2018-04-15T09:39:32.225Z,12.00
2018-04-15T09:42:01.147Z,11.85
2018-04-15T09:44:30.180Z,12.10
2018-04-15T09:46:59.092Z,11.75
2018-04-15T09:49:28.005Z,11.60
2018-04-15T09:51:56.910Z,12.50
2018-04-15T09:54:25.942Z,12.07
2018-04-15T09:56:55.259Z,11.75
2018-04-15T09:59:24.155Z,12.18
2018-04-15T10:01:53.055Z,12.50
2018-04-15T10:04:21.951Z,13.23
2018-04-15T10:06:51.033Z,12.77
2018-04-15T10:09:20.122Z,14.15
2018-04-15T10:11:49.030Z,12.35
2018-04-15T10:14:17.923Z,13.05
2018-04-15T10:16:47.208Z,13.90
2018-04-15T10:19:16.106Z,12.02
2018-04-15T10:21:44.999Z,12.85
2018-04-15T10:24:13.936Z,12.27
2018-04-15T10:26:42.814Z,13.20
2018-04-15T10:29:11.871Z,12.15
2018-04-15T10:31:40.764Z,13.45
2018-04-15T10:34:09.657Z,13.38
2018-04-15T10:36:38.830Z,13.65
2018-04-15T10:39:07.721Z,13.45
2018-04-15T10:41:36.614Z,11.55
2018-04-15T10:44:05.642Z,13.20
2018-04-15T10:46:34.531Z,13.82
2018-04-15T10:49:03.452Z,13.50
2018-04-15T10:51:32.357Z,12.30
2018-04-15T10:54:01.252Z,14.07
2018-04-15T10:56:30.213Z,14.27
2018-04-15T10:58:59.115Z,13.93
2018-04-15T11:01:28.006Z,14.05
2018-04-15T11:03:57.000Z,13.32
2018-04-15T11:06:25.911Z,14.60
2018-04-15T11:08:54.798Z,13.80
2018-04-15T11:11:23.691Z,15.00
2018-04-15T11:13:52.622Z,13.68
2018-04-15T11:16:21.515Z,14.85
2018-04-15T11:18:50.422Z,14.30
2018-04-15T11:21:19.318Z,14.40
2018-04-15T11:23:48.221Z,14.05
2018-04-15T11:26:17.111Z,13.55
2018-04-15T11:28:46.069Z,14.98
2018-04-15T11:31:14.963Z,14.80
2018-04-15T11:33:43.857Z,14.65
2018-04-15T11:36:12.806Z,14.73
2018-04-15T11:38:41.695Z,15.27
2018-04-15T11:41:10.763Z,13.23
2018-04-15T11:43:39.728Z,15.52
2018-04-15T11:46:09.543Z,14.45
2018-04-15T11:48:38.447Z,13.95
2018-04-15T11:51:07.348Z,14.32
2018-04-15T11:53:36.407Z,15.15
2018-04-15T11:56:05.307Z,13.82
2018-04-15T11:58:34.223Z,12.88
2018-04-15T12:01:03.125Z,12.70
2018-04-15T12:03:32.022Z,11.63
2018-04-15T12:06:00.963Z,12.27
2018-04-15T12:08:29.947Z,11.02
2018-04-15T12:10:58.846Z,12.77
2018-04-15T12:13:27.915Z,11.45
2018-04-15T12:15:56.808Z,11.77
2018-04-15T12:18:25.927Z,11.80
2018-04-15T12:20:54.821Z,11.32
2018-04-15T12:23:23.712Z,13.05
2018-04-15T12:25:52.610Z,10.13
2018-04-15T12:28:21.506Z,10.02
2018-04-15T12:30:50.430Z,11.60
2018-04-15T12:33:19.320Z,10.25
2018-04-15T12:35:48.361Z,10.88
2018-04-15T12:38:17.319Z,10.55
2018-04-15T12:40:46.210Z,9.00
2018-04-15T12:43:15.107Z,10.50
2018-04-15T12:45:44.023Z,8.10
2018-04-15T12:48:12.915Z,9.65
2018-04-15T12:50:41.802Z,7.70
2018-04-15T12:53:10.751Z,10.38
2018-04-15T12:55:39.653Z,11.20
2018-04-15T12:58:08.767Z,9.30
2018-04-15T13:00:37.658Z,10.10
2018-04-15T13:03:06.566Z,10.23
2018-04-15T13:05:35.599Z,10.77
2018-04-15T13:08:04.498Z,9.63
2018-04-15T13:10:33.406Z,10.30
2018-04-15T13:13:02.296Z,9.93
2018-04-15T13:15:31.183Z,9.82
2018-04-15T13:18:00.322Z,8.25
2018-04-15T13:20:29.207Z,8.05
2018-04-15T13:22:58.112Z,8.32
2018-04-15T13:25:27.003Z,8.05
2018-04-15T13:27:55.894Z,8.88
2018-04-15T13:30:24.954Z,7.18
2018-04-15T13:32:53.905Z,8.45
2018-04-15T13:35:22.811Z,7.43
2018-04-15T13:37:51.699Z,5.80
2018-04-15T13:40:20.609Z,5.68
2018-04-15T13:42:49.552Z,5.90
2018-04-15T13:45:18.531Z,4.57
2018-04-15T13:47:47.419Z,4.85
2018-04-15T13:50:16.317Z,4.45
2018-04-15T13:52:45.211Z,3.87
2018-04-15T13:55:14.324Z,4.37
2018-04-15T13:57:43.215Z,3.33
2018-04-15T14:00:12.113Z,3.65
2018-04-15T14:02:41.049Z,3.78
2018-04-15T14:05:09.937Z,4.55
2018-04-15T14:07:38.961Z,4.07
2018-04-15T14:10:07.846Z,4.10
2018-04-15T14:12:36.735Z,4.30
2018-04-15T14:15:05.645Z,5.87
2018-04-15T14:17:34.535Z,4.55
2018-04-15T14:20:03.587Z,5.05
2018-04-15T14:22:32.502Z,5.30
2018-04-15T14:25:01.387Z,5.20
2018-04-15T14:27:30.486Z,5.43
2018-04-15T14:29:59.379Z,4.95
2018-04-15T14:32:28.479Z,5.55
2018-04-15T14:34:57.363Z,4.07
2018-04-15T14:37:26.255Z,3.60
2018-04-15T14:39:55.175Z,4.10
2018-04-15T14:42:24.063Z,3.80
2018-04-15T14:44:53.107Z,4.50
2018-04-15T14:47:21.986Z,3.58
2018-04-15T14:49:50.886Z,3.80
2018-04-15T14:52:22.060Z,4.25
2018-04-15T14:54:50.946Z,3.65
2018-04-15T14:57:20.043Z,3.20
2018-04-15T14:59:48.927Z,3.33
2018-04-15T15:02:17.818Z,2.72
2018-04-15T15:04:46.878Z,3.10
2018-04-15T15:07:15.759Z,3.40
2018-04-15T15:09:44.885Z,3.00
2018-04-15T15:12:13.828Z,3.10
2018-04-15T15:14:42.720Z,3.22
2018-04-15T15:17:11.609Z,3.20
2018-04-15T15:19:40.568Z,3.60
2018-04-15T15:22:09.543Z,3.45
2018-04-15T15:24:38.426Z,3.40
2018-04-15T15:27:07.371Z,3.87
2018-04-15T15:29:36.255Z,4.15
2018-04-15T15:32:05.148Z,3.25
2018-04-15T15:34:34.199Z,3.72
2018-04-15T15:37:03.102Z,4.53
2018-04-15T15:39:32.035Z,3.78
2018-04-15T15:42:00.923Z,3.40
2018-04-15T15:44:29.806Z,3.70
2018-04-15T15:46:58.693Z,5.55
2018-04-15T15:49:27.603Z,4.25
2018-04-15T15:51:56.859Z,4.37
2018-04-15T15:54:25.748Z,6.07
2018-04-15T15:56:54.651Z,4.10
2018-04-15T15:59:23.543Z,3.85
2018-04-15T16:01:52.462Z,3.20
2018-04-15T16:04:21.360Z,3.37
2018-04-15T16:06:50.260Z,4.20
2018-04-15T16:09:19.168Z,3.70
2018-04-15T16:11:48.055Z,3.55
2018-04-15T16:14:16.996Z,3.95
2018-04-15T16:16:45.882Z,4.43
2018-04-15T16:19:14.767Z,4.53
2018-04-15T16:21:43.981Z,3.72
2018-04-15T16:24:12.874Z,4.12
2018-04-15T16:26:41.759Z,4.05
2018-04-15T16:29:10.657Z,4.12
2018-04-15T16:31:39.548Z,4.93
2018-04-15T16:34:08.615Z,4.45
2018-04-15T16:36:37.510Z,4.18
2018-04-15T16:39:06.410Z,4.70
2018-04-15T16:41:35.359Z,4.32
2018-04-15T16:44:04.265Z,5.20
2018-04-15T16:46:33.152Z,5.20
2018-04-15T16:49:02.039Z,5.70
2018-04-15T16:51:30.929Z,4.18
2018-04-15T16:53:59.904Z,4.18
2018-04-15T16:56:28.787Z,4.65
2018-04-15T16:58:57.795Z,4.25
2018-04-15T17:01:26.717Z,4.65
2018-04-15T17:03:55.612Z,4.93
2018-04-15T17:06:24.506Z,4.95
2018-04-15T17:08:53.399Z,5.00
2018-04-15T17:11:22.327Z,4.03
2018-04-15T17:13:51.352Z,4.87
2018-04-15T17:16:20.378Z,4.60
2018-04-15T17:18:49.331Z,4.57
2018-04-15T17:21:18.318Z,5.15
2018-04-15T17:23:47.225Z,5.07
2018-04-15T17:26:16.117Z,5.05
2018-04-15T17:28:45.215Z,5.07
2018-04-15T17:31:14.131Z,5.00
2018-04-15T17:33:43.067Z,5.32
2018-04-15T17:36:11.964Z,4.65
2018-04-15T17:38:40.872Z,4.75
2018-04-15T17:41:09.811Z,4.95
2018-04-15T17:43:38.735Z,5.37
2018-04-15T17:46:07.669Z,5.50
2018-04-15T17:48:36.568Z,5.82
2018-04-15T17:51:05.639Z,5.40
2018-04-15T17:53:34.960Z,5.07
2018-04-15T17:56:03.855Z,5.80
2018-04-15T17:58:32.747Z,6.60
2018-04-15T18:01:01.711Z,6.32
2018-04-15T18:03:30.799Z,5.85
2018-04-15T18:05:59.840Z,6.68
2018-04-15T18:08:28.771Z,6.60
2018-04-15T18:10:57.744Z,7.10
2018-04-15T18:13:27.147Z,6.28
2018-04-15T18:15:56.723Z,6.93
2018-04-15T18:18:25.655Z,7.15
2018-04-15T18:20:54.873Z,8.00
2018-04-15T18:23:23.764Z,8.23
2018-04-15T18:25:52.791Z,7.68
2018-04-15T18:28:21.894Z,8.23
2018-04-15T18:30:50.919Z,8.55
2018-04-15T18:33:19.941Z,8.75
2018-04-15T18:35:48.895Z,8.05
2018-04-15T18:38:17.803Z,14.38
2018-04-15T18:40:46.703Z,9.20
2018-04-15T18:43:15.847Z,8.80
2018-04-15T18:45:44.743Z,8.73
2018-04-15T18:48:13.648Z,8.55
2018-04-15T18:50:42.555Z,10.95
2018-04-15T18:53:11.451Z,7.65
2018-04-15T18:55:40.395Z,9.70
2018-04-15T18:58:09.290Z,8.50
2018-04-15T19:00:38.183Z,9.63
2018-04-15T19:03:07.183Z,9.18
2018-04-15T19:05:36.079Z,10.48
2018-04-15T19:08:05.008Z,8.30
2018-04-15T19:10:33.922Z,9.13
2018-04-15T19:13:03.220Z,8.30
2018-04-15T19:15:32.123Z,8.77
2018-04-15T19:18:01.008Z,9.35
2018-04-15T19:20:30.135Z,7.12
2018-04-15T19:22:59.031Z,7.18
2018-04-15T19:25:28.915Z,7.55
2018-04-15T19:27:57.802Z,7.80
2018-04-15T19:30:26.807Z,8.65
2018-04-15T19:32:55.735Z,10.43
2018-04-15T19:35:24.635Z,9.27
2018-04-15T19:37:53.743Z,8.82
2018-04-15T19:40:22.660Z,8.25
2018-04-15T19:42:51.542Z,8.30
2018-04-15T19:45:20.752Z,8.30
2018-04-15T19:47:49.658Z,9.35
2018-04-15T19:50:19.394Z,8.70
2018-04-15T19:52:48.280Z,9.63
2018-04-15T19:55:17.235Z,9.65
2018-04-15T19:57:46.127Z,8.40
2018-04-15T20:00:15.018Z,9.05
2018-04-15T20:02:44.043Z,9.55
2018-04-15T20:05:12.952Z,8.93
2018-04-15T20:07:41.923Z,10.18
2018-04-15T20:10:10.822Z,10.30
2018-04-15T20:12:39.810Z,10.60
2018-04-15T20:15:08.726Z,9.70
2018-04-15T20:17:37.631Z,10.32
2018-04-15T20:20:06.551Z,9.48
2018-04-15T20:22:35.459Z,11.10
2018-04-15T20:25:04.471Z,10.52
2018-04-15T20:27:33.397Z,9.05
2018-04-15T20:30:02.283Z,8.88
2018-04-15T20:32:31.538Z,9.77
2018-04-15T20:35:00.443Z,11.50
2018-04-15T20:37:29.343Z,10.50
2018-04-15T20:39:58.423Z,8.70
2018-04-15T20:42:27.335Z,8.65
2018-04-15T20:44:56.231Z,10.02
2018-04-15T20:47:25.559Z,10.15
2018-04-15T20:49:54.454Z,9.10
2018-04-15T20:52:23.350Z,9.60
2018-04-15T20:54:52.247Z,8.38
2018-04-15T20:57:21.139Z,10.20
2018-04-15T20:59:50.083Z,11.00
2018-04-15T21:02:18.991Z,10.07
2018-04-15T21:04:47.892Z,8.98
2018-04-15T21:07:16.834Z,9.52
2018-04-15T21:09:45.745Z,10.88
2018-04-15T21:12:14.691Z,8.73
2018-04-15T21:14:43.598Z,10.48
2018-04-15T21:17:12.599Z,9.98
2018-04-15T21:19:41.487Z,8.25
2018-04-15T21:22:10.378Z,8.90
2018-04-15T21:24:39.447Z,9.45
2018-04-15T21:27:08.331Z,9.95
2018-04-15T21:29:37.227Z,9.57
2018-04-15T21:32:06.115Z,9.52
2018-04-15T21:34:35.012Z,10.15
2018-04-15T21:37:04.143Z,12.05
2018-04-15T21:39:33.048Z,9.48
2018-04-15T21:42:01.940Z,8.88
2018-04-15T21:44:30.831Z,10.00
2018-04-15T21:46:59.727Z,10.88
2018-04-15T21:49:28.847Z,11.93
2018-04-15T21:51:57.739Z,10.48
2018-04-15T21:54:27.049Z,9.95
2018-04-15T21:56:55.992Z,11.35
2018-04-15T21:59:24.900Z,11.20
2018-04-15T22:01:53.799Z,13.68
2018-04-15T22:04:22.717Z,12.43
2018-04-15T22:06:51.607Z,12.35
2018-04-15T22:09:20.598Z,13.95
2018-04-15T22:11:55.363Z,13.65
2018-04-15T22:14:24.262Z,14.63
2018-04-15T22:16:53.379Z,15.70
2018-04-15T22:19:22.271Z,14.68
2018-04-15T22:21:51.166Z,15.02
2018-04-15T22:24:20.069Z,13.88
2018-04-15T22:26:48.963Z,13.57
2018-04-15T22:29:17.912Z,15.15
2018-04-15T22:31:46.798Z,12.82
2018-04-15T22:34:15.730Z,13.77
2018-04-15T22:36:44.629Z,13.75
2018-04-15T22:39:13.568Z,13.75
2018-04-15T22:41:42.667Z,13.90
2018-04-15T22:44:11.560Z,15.57
2018-04-15T22:46:40.457Z,13.95
2018-04-15T22:49:15.046Z,13.55
2018-04-15T22:51:44.027Z,15.98
2018-04-15T22:54:12.955Z,15.70
2018-04-15T22:56:43.821Z,15.07
2018-04-15T22:59:12.749Z,15.75
2018-04-15T23:01:41.655Z,14.20
2018-04-15T23:04:11.250Z,15.05
2018-04-15T23:06:40.197Z,13.68
2018-04-15T23:09:09.274Z,14.30
2018-04-15T23:11:38.176Z,16.35
2018-04-15T23:14:07.090Z,16.05
2018-04-15T23:16:36.004Z,15.88
2018-04-15T23:19:05.032Z,16.45
2018-04-15T23:21:33.941Z,16.08
2018-04-15T23:24:02.861Z,14.93
2018-04-15T23:26:31.775Z,17.25
2018-04-15T23:29:00.677Z,17.48
2018-04-15T23:31:29.909Z,15.52
2018-04-15T23:33:58.821Z,16.98
2018-04-15T23:36:27.744Z,16.30
2018-04-15T23:38:56.700Z,20.12
2018-04-15T23:41:25.611Z,15.57
2018-04-15T23:43:54.622Z,18.12
2018-04-15T23:46:23.601Z,16.65
2018-04-15T23:48:52.513Z,14.32
2018-04-15T23:51:21.499Z,17.30
2018-04-15T23:53:50.407Z,17.42
2018-04-15T23:56:19.317Z,15.10
2018-04-15T23:58:48.386Z,13.80
